createdAt,value
2023-04-11T00:02:16.191Z,7.33
2023-04-11T00:04:42.706Z,7.60
2023-04-11T00:07:09.385Z,7.80
2023-04-11T00:09:35.684Z,7.33
2023-04-11T00:12:02.202Z,7.50
2023-04-11T00:14:28.837Z,7.47
2023-04-11T00:16:57.185Z,7.50
2023-04-11T00:19:25.461Z,7.90
2023-04-11T00:21:52.093Z,7.50
2023-04-11T00:24:18.382Z,7.60
2023-04-11T00:26:44.620Z,8.20
2023-04-11T00:29:10.962Z,7.43
2023-04-11T00:31:37.231Z,7.47
2023-04-11T00:34:03.565Z,7.43
2023-04-11T00:36:30.123Z,7.13
2023-04-11T00:38:58.342Z,7.37
2023-04-11T00:41:24.878Z,7.80
2023-04-11T00:43:51.130Z,7.33
2023-04-11T00:46:17.769Z,7.30
2023-04-11T00:48:44.349Z,7.67
2023-04-11T00:51:10.641Z,7.30
2023-04-11T00:53:37.504Z,7.50
2023-04-11T00:56:03.923Z,7.10
2023-04-11T00:58:30.372Z,7.80
2023-04-11T01:00:56.659Z,7.43
2023-04-11T01:03:23.639Z,7.27
2023-04-11T01:05:52.377Z,7.80
2023-04-11T01:08:20.215Z,7.60
2023-04-11T01:10:46.735Z,7.40
2023-04-11T01:13:13.013Z,7.30
2023-04-11T01:15:39.380Z,7.27
2023-04-11T01:18:06.357Z,7.77
2023-04-11T01:20:33.418Z,7.37
2023-04-11T01:23:01.904Z,7.13
2023-04-11T01:25:28.389Z,6.73
2023-04-11T01:27:56.367Z,7.07
2023-04-11T01:30:22.981Z,7.00
2023-04-11T01:32:50.670Z,7.30
2023-04-11T01:35:18.033Z,6.57
2023-04-11T01:37:44.552Z,6.83
2023-04-11T01:40:11.280Z,7.37
2023-04-11T01:42:38.961Z,7.43
2023-04-11T01:45:06.956Z,6.97
2023-04-11T01:47:33.257Z,7.40
2023-04-11T01:49:59.534Z,6.70
2023-04-11T01:52:26.369Z,6.97
2023-04-11T01:54:52.650Z,6.93
2023-04-11T01:57:18.942Z,6.87
2023-04-11T01:59:45.213Z,7.53
2023-04-11T02:02:11.586Z,7.23
2023-04-11T02:04:37.933Z,6.77
2023-04-11T02:07:04.217Z,6.77
2023-04-11T02:09:30.500Z,7.17
2023-04-11T02:11:57.025Z,7.70
2023-04-11T02:14:24.265Z,7.17
2023-04-11T02:16:51.267Z,7.13
2023-04-11T02:19:17.669Z,6.93
2023-04-11T02:21:43.950Z,7.23
2023-04-11T02:24:10.322Z,6.97
2023-04-11T02:26:36.558Z,7.70
2023-04-11T02:29:02.829Z,7.17
2023-04-11T02:31:29.164Z,7.30
2023-04-11T02:33:55.559Z,7.23
2023-04-11T02:36:21.952Z,6.90
2023-04-11T02:38:48.215Z,7.07
2023-04-11T02:41:14.512Z,7.13
2023-04-11T02:43:40.797Z,7.13
2023-04-11T02:46:12.797Z,7.47
2023-04-11T02:48:39.488Z,7.13
2023-04-11T02:51:05.882Z,7.47
2023-04-11T02:53:32.147Z,7.33
2023-04-11T02:55:58.379Z,7.83
2023-04-11T02:58:25.871Z,7.47
2023-04-11T03:00:52.150Z,7.70
2023-04-11T03:03:18.739Z,7.83
2023-04-11T03:05:45.171Z,7.37
2023-04-11T03:08:11.603Z,7.97
2023-04-11T03:10:37.884Z,7.60
2023-04-11T03:13:04.138Z,7.63
2023-04-11T03:15:32.303Z,7.73
2023-04-11T03:17:58.787Z,7.83
2023-04-11T03:20:25.125Z,7.43
2023-04-11T03:22:51.381Z,7.37
2023-04-11T03:25:17.813Z,7.87
2023-04-11T03:27:44.070Z,8.10
2023-04-11T03:30:15.858Z,7.47
2023-04-11T03:32:42.205Z,7.50
2023-04-11T03:35:08.717Z,7.90
2023-04-11T03:37:35.006Z,7.90
2023-04-11T03:40:01.264Z,7.63
2023-04-11T03:42:27.730Z,7.53
2023-04-11T03:44:54.012Z,8.20
2023-04-11T03:47:20.352Z,7.43
2023-04-11T03:49:46.664Z,7.20
2023-04-11T03:52:14.964Z,7.87
2023-04-11T03:54:41.372Z,7.63
2023-04-11T03:57:08.793Z,6.97
2023-04-11T03:59:35.067Z,6.53
2023-04-11T04:02:01.451Z,6.97
2023-04-11T04:04:28.744Z,7.00
2023-04-11T04:06:56.929Z,7.03
2023-04-11T04:09:24.029Z,7.43
2023-04-11T04:11:50.493Z,6.63
2023-04-11T04:14:17.492Z,6.10
2023-04-11T04:16:43.838Z,6.40
2023-04-11T04:19:10.562Z,6.60
2023-04-11T04:21:37.989Z,5.63
2023-04-11T04:24:05.077Z,6.30
2023-04-11T04:26:31.463Z,6.50
2023-04-11T04:29:04.380Z,6.23
2023-04-11T04:31:33.682Z,6.80
2023-04-11T04:34:03.530Z,6.67
2023-04-11T04:36:31.017Z,6.40
2023-04-11T04:39:02.094Z,6.70
2023-04-11T04:41:36.291Z,7.10
2023-04-11T04:44:04.449Z,7.00
2023-04-11T04:46:36.602Z,7.33
2023-04-11T04:49:06.361Z,7.00
2023-04-11T04:51:32.629Z,6.93
2023-04-11T04:53:59.631Z,7.27
2023-04-11T04:56:28.820Z,7.53
2023-04-11T04:58:55.052Z,6.70
2023-04-11T05:01:21.478Z,7.17
2023-04-11T05:03:50.796Z,7.10
2023-04-11T05:06:18.796Z,6.40
2023-04-11T05:08:46.408Z,7.47
2023-04-11T05:11:12.684Z,7.50
2023-04-11T05:13:38.930Z,6.87
2023-04-11T05:16:05.399Z,6.97
2023-04-11T05:18:31.744Z,7.70
2023-04-11T05:20:58.147Z,7.83
2023-04-11T05:23:24.373Z,7.53
2023-04-11T05:25:50.624Z,8.00
2023-04-11T05:28:16.867Z,7.57
2023-04-11T05:30:43.148Z,7.87
2023-04-11T05:33:09.452Z,7.87
2023-04-11T05:35:35.787Z,7.87
2023-04-11T05:38:02.109Z,7.50
2023-04-11T05:40:28.351Z,7.20
2023-04-11T05:42:54.580Z,7.70
2023-04-11T05:45:20.870Z,7.80
2023-04-11T05:47:47.134Z,8.13
2023-04-11T05:50:14.236Z,8.00
2023-04-11T05:52:40.537Z,7.80
2023-04-11T05:55:07.288Z,8.00
2023-04-11T05:57:33.519Z,8.20
2023-04-11T06:00:01.940Z,7.27
2023-04-11T06:02:28.650Z,7.77
2023-04-11T06:04:54.964Z,7.87
2023-04-11T06:07:22.025Z,7.70
2023-04-11T06:09:49.078Z,8.03
2023-04-11T06:12:15.602Z,8.00
2023-04-11T06:14:41.837Z,7.60
2023-04-11T06:17:08.153Z,7.07
2023-04-11T06:19:34.399Z,7.87
2023-04-11T06:22:00.680Z,7.53
2023-04-11T06:24:37.152Z,8.17
2023-04-11T06:27:03.823Z,7.83
2023-04-11T06:29:30.931Z,7.40
2023-04-11T06:31:57.659Z,7.70
2023-04-11T06:34:23.969Z,7.67
2023-04-11T06:36:50.208Z,7.77
2023-04-11T06:39:19.192Z,8.33
2023-04-11T06:41:46.482Z,8.13
2023-04-11T06:44:12.962Z,8.23
2023-04-11T06:46:39.309Z,7.93
2023-04-11T06:49:07.234Z,7.90
2023-04-11T06:51:34.089Z,7.77
2023-04-11T06:54:00.381Z,8.07
2023-04-11T06:56:27.071Z,8.27
2023-04-11T06:58:53.463Z,7.97
2023-04-11T07:01:21.001Z,7.97
2023-04-11T07:03:47.465Z,7.87
2023-04-11T07:06:13.874Z,8.30
2023-04-11T07:08:41.016Z,8.50
2023-04-11T07:11:07.475Z,8.13
2023-04-11T07:13:33.701Z,8.53
2023-04-11T07:15:59.966Z,8.47
2023-04-11T07:18:27.320Z,8.73
2023-04-11T07:20:53.794Z,8.27
2023-04-11T07:23:21.792Z,8.40
2023-04-11T07:25:49.581Z,8.73
2023-04-11T07:28:15.989Z,8.17
2023-04-11T07:30:42.479Z,7.57
2023-04-11T07:33:08.722Z,7.60
2023-04-11T07:35:35.173Z,8.43
2023-04-11T07:38:01.479Z,7.47
2023-04-11T07:40:28.143Z,7.67
2023-04-11T07:42:54.394Z,8.47
2023-04-11T07:45:21.297Z,7.07
2023-04-11T07:47:48.080Z,7.07
2023-04-11T07:50:14.411Z,7.60
2023-04-11T07:52:40.705Z,7.40
2023-04-11T07:55:07.050Z,7.50
2023-04-11T07:57:33.358Z,7.43
2023-04-11T07:59:59.741Z,7.70
2023-04-11T08:02:26.161Z,7.07
2023-04-11T08:04:52.612Z,7.13
2023-04-11T08:07:19.018Z,8.10
2023-04-11T08:09:45.270Z,7.47
2023-04-11T08:12:11.548Z,7.07
2023-04-11T08:14:37.816Z,6.30
2023-04-11T08:17:05.443Z,6.23
2023-04-11T08:19:36.929Z,5.90
2023-04-11T08:22:03.374Z,5.77
2023-04-11T08:24:29.639Z,4.73
2023-04-11T08:26:55.880Z,5.07
2023-04-11T08:29:22.192Z,4.17
2023-04-11T08:31:48.449Z,4.10
2023-04-11T08:34:14.757Z,3.47
2023-04-11T08:36:41.708Z,3.37
2023-04-11T08:39:08.067Z,3.63
2023-04-11T08:41:35.459Z,2.93
2023-04-11T08:44:01.855Z,3.03
2023-04-11T08:46:28.590Z,2.60
2023-04-11T08:48:54.894Z,2.70
2023-04-11T08:51:24.882Z,2.50
2023-04-11T08:53:52.490Z,2.27
2023-04-11T08:56:18.838Z,2.67
2023-04-11T08:58:45.242Z,2.50
2023-04-11T09:01:28.561Z,2.60
2023-04-11T09:03:55.293Z,2.87
2023-04-11T09:06:21.948Z,2.70
2023-04-11T09:08:48.297Z,2.60
2023-04-11T09:11:14.586Z,2.27
2023-04-11T09:13:40.901Z,2.53
2023-04-11T09:16:07.485Z,2.53
2023-04-11T09:18:34.650Z,2.60
2023-04-11T09:21:01.582Z,2.10
2023-04-11T09:23:28.035Z,2.50
2023-04-11T09:25:54.329Z,2.07
2023-04-11T09:28:20.606Z,2.60
2023-04-11T09:30:51.292Z,2.47
2023-04-11T09:33:18.605Z,2.73
2023-04-11T09:35:46.352Z,2.40
2023-04-11T09:38:12.742Z,2.13
2023-04-11T09:40:42.493Z,2.10
2023-04-11T09:43:08.771Z,2.00
2023-04-11T09:45:44.175Z,2.30
2023-04-11T09:48:18.565Z,2.30
2023-04-11T09:50:45.262Z,2.10
2023-04-11T09:53:11.587Z,2.07
2023-04-11T09:55:38.121Z,2.30
2023-04-11T09:58:05.664Z,2.47
2023-04-11T10:00:32.528Z,2.07
2023-04-11T10:02:59.068Z,2.40
2023-04-11T10:05:29.262Z,2.13
2023-04-11T10:07:58.591Z,2.13
2023-04-11T10:10:25.336Z,2.17
2023-04-11T10:12:51.826Z,1.70
2023-04-11T10:15:18.705Z,2.33
2023-04-11T10:18:03.603Z,1.70
2023-04-11T10:20:38.961Z,1.93
2023-04-11T10:23:05.877Z,1.60
2023-04-11T10:25:32.296Z,1.57
2023-04-11T10:28:03.990Z,1.80
2023-04-11T10:30:39.323Z,1.60
2023-04-11T10:33:12.641Z,1.80
2023-04-11T10:36:05.003Z,1.80
2023-04-11T10:38:37.558Z,1.70
2023-04-11T10:41:22.712Z,1.83
2023-04-11T10:43:49.745Z,1.70
2023-04-11T10:46:19.530Z,1.50
2023-04-11T10:49:01.871Z,1.60
2023-04-11T10:51:32.122Z,1.60
2023-04-11T10:54:02.630Z,1.50
2023-04-11T10:56:48.852Z,1.50
2023-04-11T10:59:34.332Z,1.37
2023-04-11T11:02:01.593Z,1.43
2023-04-11T11:04:32.084Z,1.17
2023-04-11T11:06:58.808Z,1.40
2023-04-11T11:09:25.608Z,1.57
2023-04-11T11:12:07.792Z,1.53
2023-04-11T11:14:34.105Z,1.50
2023-04-11T11:17:00.796Z,1.63
2023-04-11T11:19:27.345Z,1.60
2023-04-11T11:21:53.597Z,1.53
2023-04-11T11:24:26.203Z,1.60
2023-04-11T11:26:53.240Z,1.60
2023-04-11T11:29:35.692Z,1.70
2023-04-11T11:32:05.357Z,1.80
2023-04-11T11:34:32.339Z,1.80
2023-04-11T11:37:01.373Z,1.77
2023-04-11T11:39:29.157Z,1.80
2023-04-11T11:41:56.106Z,1.40
2023-04-11T11:44:22.899Z,1.70
2023-04-11T11:47:05.219Z,1.50
2023-04-11T11:49:44.096Z,1.40
2023-04-11T11:52:10.740Z,1.27
2023-04-11T11:54:44.274Z,1.63
2023-04-11T11:57:10.524Z,1.50
2023-04-11T11:59:37.459Z,1.67
2023-04-11T12:02:04.282Z,1.43
2023-04-11T12:04:31.630Z,1.50
2023-04-11T12:06:58.082Z,1.40
2023-04-11T12:09:30.341Z,1.60
2023-04-11T12:11:56.584Z,1.50
2023-04-11T12:14:23.483Z,1.13
2023-04-11T12:16:53.265Z,1.50
2023-04-11T12:19:19.625Z,1.60
2023-04-11T12:21:46.089Z,1.07
2023-04-11T12:24:12.384Z,1.47
2023-04-11T12:26:45.596Z,1.13
2023-04-11T12:29:19.270Z,1.20
2023-04-11T12:31:46.044Z,1.27
2023-04-11T12:34:12.974Z,1.53
2023-04-11T12:36:39.291Z,1.53
2023-04-11T12:39:05.569Z,1.33
2023-04-11T12:41:32.774Z,1.63
2023-04-11T12:44:01.999Z,1.53
2023-04-11T12:46:28.339Z,1.40
2023-04-11T12:48:54.787Z,1.80
2023-04-11T12:51:21.227Z,1.93
2023-04-11T12:53:47.504Z,1.60
2023-04-11T12:56:13.746Z,1.47
2023-04-11T12:58:40.087Z,1.50
2023-04-11T13:01:07.429Z,1.40
2023-04-11T13:03:33.898Z,1.60
2023-04-11T13:06:00.323Z,1.10
2023-04-11T13:08:27.250Z,0.70
2023-04-11T13:10:54.167Z,0.70
2023-04-11T13:13:21.785Z,0.70
2023-04-11T13:15:48.176Z,1.00
2023-04-11T13:18:14.590Z,0.87
2023-04-11T13:20:40.936Z,0.70
2023-04-11T13:23:07.580Z,1.07
2023-04-11T13:25:34.837Z,0.60
2023-04-11T13:28:01.142Z,0.47
2023-04-11T13:30:27.497Z,0.60
2023-04-11T13:32:53.916Z,0.70
2023-04-11T13:35:20.271Z,1.40
2023-04-11T13:37:47.122Z,1.07
2023-04-11T13:40:13.602Z,0.80
2023-04-11T13:42:39.890Z,0.83
2023-04-11T13:45:06.399Z,0.77
2023-04-11T13:47:35.381Z,1.07
2023-04-11T13:50:03.471Z,0.90
2023-04-11T13:52:29.719Z,0.90
2023-04-11T13:54:56.037Z,0.90
2023-04-11T13:57:22.633Z,1.20
2023-04-11T13:59:48.987Z,1.10
2023-04-11T14:02:15.316Z,1.20
2023-04-11T14:04:41.951Z,1.10
2023-04-11T14:07:08.389Z,1.33
2023-04-11T14:09:34.701Z,1.17
2023-04-11T14:12:01.480Z,1.00
2023-04-11T14:14:27.781Z,1.20
2023-04-11T14:16:54.147Z,1.00
2023-04-11T14:19:22.510Z,0.80
2023-04-11T14:21:48.797Z,0.90
2023-04-11T14:24:15.402Z,1.00
2023-04-11T14:26:41.676Z,0.90
2023-04-11T14:29:11.686Z,1.13
2023-04-11T14:31:38.027Z,1.30
2023-04-11T14:34:04.354Z,1.03
2023-04-11T14:36:31.777Z,0.90
2023-04-11T14:38:58.040Z,1.20
2023-04-11T14:41:24.318Z,1.17
2023-04-11T14:43:50.812Z,1.37
2023-04-11T14:46:17.182Z,1.40
2023-04-11T14:48:43.474Z,1.30
2023-04-11T14:51:09.714Z,1.03
2023-04-11T14:53:36.015Z,1.00
2023-04-11T14:56:06.088Z,1.00
2023-04-11T14:58:32.647Z,1.30
2023-04-11T15:00:58.913Z,1.30
2023-04-11T15:03:25.497Z,1.40
2023-04-11T15:05:51.995Z,1.23
2023-04-11T15:08:18.320Z,1.10
2023-04-11T15:10:44.606Z,1.70
2023-04-11T15:13:11.895Z,1.20
2023-04-11T15:15:38.261Z,1.53
2023-04-11T15:18:23.288Z,1.20
2023-04-11T15:20:49.696Z,1.73
2023-04-11T15:23:16.328Z,1.30
2023-04-11T15:25:42.594Z,1.10
2023-04-11T15:28:08.917Z,1.10
2023-04-11T15:30:37.596Z,1.20
2023-04-11T15:33:04.024Z,0.90
2023-04-11T15:35:30.296Z,1.10
2023-04-11T15:37:58.377Z,1.10
2023-04-11T15:40:24.634Z,1.00
2023-04-11T15:42:51.031Z,1.10
2023-04-11T15:45:17.452Z,1.00
2023-04-11T15:47:43.731Z,0.83
2023-04-11T15:50:10.207Z,1.00
2023-04-11T15:52:36.470Z,0.90
2023-04-11T15:55:02.849Z,1.13
2023-04-11T15:57:29.095Z,1.33
2023-04-11T15:59:55.877Z,1.20
2023-04-11T16:02:22.366Z,1.33
2023-04-11T16:04:51.369Z,1.10
2023-04-11T16:07:20.184Z,1.37
2023-04-11T16:09:46.588Z,1.80
2023-04-11T16:12:12.880Z,1.40
2023-04-11T16:14:39.210Z,1.40
2023-04-11T16:17:05.510Z,1.23
2023-04-11T16:19:31.806Z,1.17
2023-04-11T16:21:58.032Z,1.13
2023-04-11T16:24:25.866Z,1.00
2023-04-11T16:26:52.153Z,1.33
2023-04-11T16:29:18.709Z,1.37
2023-04-11T16:31:45.047Z,1.10
2023-04-11T16:34:11.785Z,1.30
2023-04-11T16:36:38.170Z,1.17
2023-04-11T16:39:04.498Z,1.17
2023-04-11T16:41:31.431Z,1.40
2023-04-11T16:43:58.018Z,1.30
2023-04-11T16:46:24.596Z,1.10
2023-04-11T16:48:51.038Z,1.07
2023-04-11T16:51:18.464Z,1.20
2023-04-11T16:53:45.968Z,1.23
2023-04-11T16:56:12.288Z,1.40
2023-04-11T16:58:38.616Z,1.10
2023-04-11T17:01:05.199Z,1.17
2023-04-11T17:03:33.219Z,1.43
2023-04-11T17:05:59.794Z,1.20
2023-04-11T17:08:26.499Z,1.23
2023-04-11T17:10:53.080Z,1.20
2023-04-11T17:13:19.561Z,1.20
2023-04-11T17:15:46.212Z,1.20
2023-04-11T17:18:13.716Z,1.70
2023-04-11T17:20:40.092Z,1.20
2023-04-11T17:23:06.484Z,1.40
2023-04-11T17:25:32.828Z,1.50
2023-04-11T17:28:00.611Z,1.43
2023-04-11T17:30:28.496Z,1.30
2023-04-11T17:32:55.369Z,1.20
2023-04-11T17:35:22.118Z,1.50
2023-04-11T17:37:48.434Z,1.30
2023-04-11T17:40:15.286Z,1.33
2023-04-11T17:42:41.664Z,1.40
2023-04-11T17:45:16.513Z,1.50
2023-04-11T17:47:44.363Z,1.50
2023-04-11T17:50:12.679Z,1.20
2023-04-11T17:52:40.191Z,1.37
2023-04-11T17:55:07.376Z,1.37
2023-04-11T17:57:34.637Z,1.50
2023-04-11T18:00:16.583Z,1.27
2023-04-11T18:02:46.314Z,1.30
2023-04-11T18:05:22.875Z,1.40
2023-04-11T18:07:50.718Z,1.30
2023-04-11T18:10:18.013Z,1.30
2023-04-11T18:12:48.055Z,1.30
2023-04-11T18:15:14.464Z,1.50
2023-04-11T18:17:41.277Z,1.40
2023-04-11T18:20:08.912Z,1.60
2023-04-11T18:22:36.013Z,1.57
2023-04-11T18:25:02.783Z,1.37
2023-04-11T18:27:32.704Z,1.50
2023-04-11T18:29:59.698Z,1.40
2023-04-11T18:32:33.011Z,1.10
2023-04-11T18:35:04.483Z,1.20
2023-04-11T18:37:31.465Z,1.70
2023-04-11T18:39:58.047Z,1.50
2023-04-11T18:42:24.574Z,1.40
2023-04-11T18:44:51.477Z,1.50
2023-04-11T18:47:19.032Z,1.33
2023-04-11T18:49:45.778Z,1.60
2023-04-11T18:52:12.471Z,1.60
2023-04-11T18:54:39.307Z,1.40
2023-04-11T18:57:05.918Z,1.73
2023-04-11T18:59:35.247Z,1.73
2023-04-11T19:02:04.232Z,1.70
2023-04-11T19:04:30.877Z,1.30
2023-04-11T19:06:57.722Z,1.40
2023-04-11T19:09:24.097Z,1.50
2023-04-11T19:11:50.502Z,1.60
2023-04-11T19:14:16.817Z,1.87
2023-04-11T19:16:44.196Z,1.53
2023-04-11T19:19:10.615Z,1.20
2023-04-11T19:21:36.885Z,1.43
2023-04-11T19:24:03.787Z,1.40
2023-04-11T19:26:30.046Z,1.37
2023-04-11T19:28:56.570Z,1.37
2023-04-11T19:31:22.911Z,1.53
2023-04-11T19:33:50.207Z,1.30
2023-04-11T19:36:16.574Z,1.37
2023-04-11T19:38:42.962Z,1.23
2023-04-11T19:41:10.460Z,1.40
2023-04-11T19:43:36.746Z,1.50
2023-04-11T19:46:03.123Z,1.23
2023-04-11T19:48:29.463Z,1.30
2023-04-11T19:50:55.833Z,1.40
2023-04-11T19:53:22.111Z,1.30
2023-04-11T19:55:51.962Z,1.20
2023-04-11T19:58:18.459Z,1.40
2023-04-11T20:00:44.783Z,1.23
2023-04-11T20:03:14.604Z,1.47
2023-04-11T20:05:42.295Z,1.30
2023-04-11T20:08:08.864Z,1.30
2023-04-11T20:10:38.246Z,1.50
2023-04-11T20:13:04.536Z,1.40
2023-04-11T20:15:31.350Z,1.40
2023-04-11T20:17:57.805Z,1.60
2023-04-11T20:20:28.256Z,1.30
2023-04-11T20:22:55.134Z,1.40
2023-04-11T20:25:21.525Z,1.70
2023-04-11T20:27:47.793Z,1.90
2023-04-11T20:30:15.444Z,1.27
2023-04-11T20:32:42.312Z,1.43
2023-04-11T20:35:09.775Z,1.37
2023-04-11T20:37:36.247Z,1.53
2023-04-11T20:40:06.500Z,1.67
2023-04-11T20:42:33.079Z,1.33
2023-04-11T20:45:03.593Z,1.57
2023-04-11T20:47:29.979Z,1.53
2023-04-11T20:49:57.484Z,1.70
2023-04-11T20:52:23.790Z,1.40
2023-04-11T20:54:50.195Z,1.60
2023-04-11T20:57:16.468Z,1.40
2023-04-11T20:59:42.826Z,1.90
2023-04-11T21:02:09.128Z,1.50
2023-04-11T21:04:35.563Z,1.70
2023-04-11T21:07:01.954Z,1.57
2023-04-11T21:09:28.199Z,1.57
2023-04-11T21:11:54.764Z,1.70
2023-04-11T21:14:21.530Z,1.67
2023-04-11T21:16:47.809Z,1.43
2023-04-11T21:19:14.071Z,1.40
2023-04-11T21:21:40.793Z,1.70
2023-04-11T21:24:10.141Z,1.63
2023-04-11T21:26:36.399Z,1.57
2023-04-11T21:29:02.808Z,1.40
2023-04-11T21:31:29.122Z,1.40
2023-04-11T21:33:55.748Z,1.20
2023-04-11T21:36:22.220Z,1.50
2023-04-11T21:38:48.447Z,1.53
2023-04-11T21:41:14.679Z,1.50
2023-04-11T21:43:41.029Z,1.30
2023-04-11T21:46:07.366Z,1.40
2023-04-11T21:48:34.566Z,1.50
2023-04-11T21:51:02.089Z,1.50
2023-04-11T21:53:28.321Z,2.00
2023-04-11T21:55:54.644Z,2.00
2023-04-11T21:58:28.986Z,1.90
2023-04-11T22:00:56.149Z,1.50
2023-04-11T22:03:23.004Z,1.70
2023-04-11T22:05:50.384Z,1.70
2023-04-11T22:08:20.123Z,2.10
2023-04-11T22:10:47.618Z,1.80
2023-04-11T22:13:15.818Z,1.87
2023-04-11T22:15:42.117Z,2.30
2023-04-11T22:18:09.460Z,2.23
2023-04-11T22:20:38.149Z,2.10
2023-04-11T22:23:06.183Z,2.00
2023-04-11T22:25:32.830Z,2.17
2023-04-11T22:27:59.162Z,2.03
2023-04-11T22:30:25.511Z,2.20
2023-04-11T22:32:54.097Z,2.50
2023-04-11T22:35:20.682Z,2.37
2023-04-11T22:37:47.088Z,2.83
2023-04-11T22:40:15.365Z,2.30
2023-04-11T22:42:41.699Z,2.20
2023-04-11T22:45:08.305Z,2.20
2023-04-11T22:47:38.025Z,2.10
2023-04-11T22:50:04.679Z,2.30
2023-04-11T22:52:30.946Z,2.10
2023-04-11T22:54:57.408Z,2.10
2023-04-11T22:57:23.638Z,1.90
2023-04-11T22:59:49.975Z,2.20
2023-04-11T23:02:16.485Z,2.33
2023-04-11T23:04:42.837Z,2.10
2023-04-11T23:07:10.280Z,2.00
2023-04-11T23:09:36.858Z,2.43
2023-04-11T23:12:03.133Z,2.00
2023-04-11T23:14:31.254Z,2.27
2023-04-11T23:16:57.795Z,2.50
2023-04-11T23:19:24.331Z,2.20
2023-04-11T23:21:50.614Z,2.67
2023-04-11T23:24:16.866Z,2.50
2023-04-11T23:26:43.121Z,2.50
2023-04-11T23:29:09.408Z,2.37
2023-04-11T23:31:35.891Z,2.27
2023-04-11T23:34:02.135Z,2.30
2023-04-11T23:36:29.061Z,2.27
2023-04-11T23:38:55.515Z,2.23
2023-04-11T23:41:21.778Z,2.67
2023-04-11T23:43:48.114Z,1.93
2023-04-11T23:46:14.852Z,2.47
2023-04-11T23:48:42.341Z,2.20
2023-04-11T23:51:08.600Z,2.30
2023-04-11T23:53:34.891Z,2.67
2023-04-11T23:56:01.262Z,2.50
2023-04-11T23:58:27.536Z,2.20
